createdAt,value
2023-04-07T00:01:12.687Z,8.59
2023-04-07T00:03:40.875Z,8.57
2023-04-07T00:06:07.570Z,8.57
2023-04-07T00:08:33.974Z,8.56
2023-04-07T00:11:00.919Z,8.51
2023-04-07T00:13:27.971Z,8.48
2023-04-07T00:15:54.936Z,8.50
2023-04-07T00:18:21.591Z,8.43
2023-04-07T00:20:48.064Z,8.41
2023-04-07T00:23:14.551Z,8.40
2023-04-07T00:25:40.956Z,8.37
2023-04-07T00:28:07.344Z,8.38
2023-04-07T00:30:33.749Z,8.40
2023-04-07T00:33:00.498Z,8.38
2023-04-07T00:35:26.992Z,8.36
2023-04-07T00:37:53.443Z,8.38
2023-04-07T00:40:19.920Z,8.37
2023-04-07T00:42:46.338Z,8.37
2023-04-07T00:45:12.863Z,8.40
2023-04-07T00:47:39.506Z,8.36
2023-04-07T00:50:06.474Z,8.35
2023-04-07T00:52:33.634Z,8.34
2023-04-07T00:55:00.242Z,8.30
2023-04-07T00:57:27.329Z,8.28
2023-04-07T00:59:55.562Z,8.29
2023-04-07T01:02:33.988Z,8.28
2023-04-07T01:05:15.752Z,8.28
2023-04-07T01:08:03.661Z,8.34
2023-04-07T01:10:49.947Z,8.33
2023-04-07T01:13:43.814Z,8.27
2023-04-07T01:16:15.707Z,8.25
2023-04-07T01:18:48.044Z,8.27
2023-04-07T01:21:17.435Z,8.26
2023-04-07T01:24:18.764Z,8.30
2023-04-07T01:26:47.218Z,8.28
2023-04-07T01:29:37.380Z,8.31
2023-04-07T01:32:08.151Z,8.30
2023-04-07T01:34:36.923Z,8.27
2023-04-07T01:37:04.916Z,8.32
2023-04-07T01:39:33.382Z,8.35
2023-04-07T01:42:02.418Z,8.35
2023-04-07T01:44:30.188Z,8.36
2023-04-07T01:46:57.235Z,8.37
2023-04-07T01:49:25.915Z,8.36
2023-04-07T01:51:52.871Z,8.33
2023-04-07T01:54:20.532Z,8.32
2023-04-07T01:56:46.997Z,8.34
2023-04-07T01:59:13.510Z,8.33
2023-04-07T02:01:40.429Z,8.31
2023-04-07T02:04:17.876Z,8.34
2023-04-07T02:06:54.505Z,8.38
2023-04-07T02:09:24.217Z,8.34
2023-04-07T02:11:53.383Z,8.34
2023-04-07T02:14:22.612Z,8.35
2023-04-07T02:16:49.968Z,8.40
2023-04-07T02:19:16.569Z,8.40
2023-04-07T02:21:44.366Z,8.38
2023-04-07T02:24:11.934Z,8.40
2023-04-07T02:26:38.620Z,8.37
2023-04-07T02:29:05.187Z,8.42
2023-04-07T02:31:32.235Z,8.45
2023-04-07T02:33:58.743Z,8.48
2023-04-07T02:36:26.302Z,8.45
2023-04-07T02:38:52.828Z,8.45
2023-04-07T02:41:19.228Z,8.47
2023-04-07T02:43:46.049Z,8.48
2023-04-07T02:46:13.269Z,8.47
2023-04-07T02:48:41.219Z,8.47
2023-04-07T02:51:07.653Z,8.45
2023-04-07T02:53:34.110Z,8.45
2023-04-07T02:56:00.636Z,8.47
2023-04-07T02:58:27.137Z,8.49
2023-04-07T03:00:53.712Z,8.44
2023-04-07T03:03:20.479Z,8.47
2023-04-07T03:05:47.032Z,8.50
2023-04-07T03:08:13.542Z,8.49
2023-04-07T03:10:40.020Z,8.46
2023-04-07T03:13:08.242Z,8.43
2023-04-07T03:15:34.723Z,8.41
2023-04-07T03:18:01.198Z,8.41
2023-04-07T03:20:27.850Z,8.38
2023-04-07T03:22:54.294Z,8.34
2023-04-07T03:25:21.496Z,8.32
2023-04-07T03:27:47.910Z,8.35
2023-04-07T03:30:14.424Z,8.35
2023-04-07T03:32:41.032Z,8.32
2023-04-07T03:35:07.977Z,8.34
2023-04-07T03:37:34.490Z,8.36
2023-04-07T03:40:01.287Z,8.36
2023-04-07T03:42:27.738Z,8.38
2023-04-07T03:44:54.234Z,8.44
2023-04-07T03:47:20.696Z,8.43
2023-04-07T03:49:47.110Z,8.44
2023-04-07T03:52:13.554Z,8.44
2023-04-07T03:54:39.976Z,8.43
2023-04-07T03:57:06.731Z,8.45
2023-04-07T03:59:33.166Z,8.41
2023-04-07T04:01:59.606Z,8.41
2023-04-07T04:04:26.044Z,8.38
2023-04-07T04:06:52.748Z,8.38
2023-04-07T04:09:19.254Z,8.39
2023-04-07T04:11:45.748Z,8.41
2023-04-07T04:14:12.421Z,8.39
2023-04-07T04:16:38.893Z,8.41
2023-04-07T04:19:05.402Z,8.44
2023-04-07T04:21:31.875Z,8.40
2023-04-07T04:23:58.263Z,8.38
2023-04-07T04:26:26.179Z,8.33
2023-04-07T04:28:52.991Z,8.36
2023-04-07T04:31:19.544Z,8.36
2023-04-07T04:33:46.525Z,8.37
2023-04-07T04:36:13.281Z,8.38
2023-04-07T04:38:39.943Z,8.35
2023-04-07T04:41:06.805Z,8.34
2023-04-07T04:43:33.444Z,8.37
2023-04-07T04:45:59.839Z,8.39
2023-04-07T04:48:26.302Z,8.41
2023-04-07T04:50:52.700Z,8.45
2023-04-07T04:53:19.124Z,8.40
2023-04-07T04:55:48.114Z,8.41
2023-04-07T04:58:14.536Z,8.40
2023-04-07T05:00:41.411Z,8.40
2023-04-07T05:03:08.040Z,8.36
2023-04-07T05:05:34.614Z,8.35
2023-04-07T05:08:01.140Z,8.36
2023-04-07T05:10:27.543Z,8.33
2023-04-07T05:12:53.977Z,8.31
2023-04-07T05:15:20.742Z,8.31
2023-04-07T05:17:50.583Z,8.34
2023-04-07T05:20:17.759Z,8.33
2023-04-07T05:22:44.142Z,8.31
2023-04-07T05:25:10.812Z,8.32
2023-04-07T05:27:37.221Z,8.34
2023-04-07T05:30:03.927Z,8.33
2023-04-07T05:32:30.559Z,8.33
2023-04-07T05:34:57.012Z,8.33
2023-04-07T05:37:23.498Z,8.34
2023-04-07T05:39:49.997Z,8.36
2023-04-07T05:42:16.416Z,8.35
2023-04-07T05:44:42.847Z,8.33
2023-04-07T05:47:09.366Z,8.34
2023-04-07T05:49:36.159Z,8.32
2023-04-07T05:52:06.094Z,8.29
2023-04-07T05:54:32.528Z,8.30
2023-04-07T05:56:59.013Z,8.30
2023-04-07T05:59:25.458Z,8.33
2023-04-07T06:01:51.999Z,8.33
2023-04-07T06:04:18.643Z,8.33
2023-04-07T06:06:45.291Z,8.32
2023-04-07T06:09:11.732Z,8.28
2023-04-07T06:11:38.227Z,8.24
2023-04-07T06:14:04.630Z,8.28
2023-04-07T06:16:31.061Z,8.26
2023-04-07T06:18:57.521Z,8.29
2023-04-07T06:21:24.886Z,8.31
2023-04-07T06:23:51.539Z,8.34
2023-04-07T06:26:18.211Z,8.29
2023-04-07T06:28:44.647Z,8.31
2023-04-07T06:31:11.226Z,8.26
2023-04-07T06:33:37.663Z,8.27
2023-04-07T06:36:04.408Z,8.27
2023-04-07T06:38:31.686Z,8.30
2023-04-07T06:40:58.093Z,8.32
2023-04-07T06:43:24.634Z,8.34
2023-04-07T06:45:51.222Z,8.40
2023-04-07T06:48:17.659Z,8.42
2023-04-07T06:50:49.050Z,8.47
2023-04-07T06:53:15.539Z,8.46
2023-04-07T06:55:41.987Z,8.53
2023-04-07T06:58:08.468Z,8.59
2023-04-07T07:00:37.010Z,8.60
2023-04-07T07:03:03.942Z,8.63
2023-04-07T07:05:30.774Z,8.60
2023-04-07T07:07:57.426Z,8.59
2023-04-07T07:10:23.996Z,8.64
2023-04-07T07:12:51.752Z,8.66
2023-04-07T07:15:18.497Z,8.68
2023-04-07T07:17:45.015Z,8.74
2023-04-07T07:20:11.719Z,8.84
2023-04-07T07:22:38.244Z,8.82
2023-04-07T07:25:05.180Z,8.77
2023-04-07T07:27:31.820Z,8.80
2023-04-07T07:29:58.264Z,8.84
2023-04-07T07:32:24.989Z,8.82
2023-04-07T07:34:51.475Z,8.82
2023-04-07T07:37:17.987Z,8.87
2023-04-07T07:39:44.372Z,8.80
2023-04-07T07:42:13.682Z,8.75
2023-04-07T07:44:40.235Z,8.77
2023-04-07T07:47:06.640Z,8.85
2023-04-07T07:49:33.160Z,8.81
2023-04-07T07:52:00.134Z,8.82
2023-04-07T07:54:26.545Z,8.84
2023-04-07T07:56:52.931Z,8.87
2023-04-07T07:59:19.295Z,8.92
2023-04-07T08:01:45.922Z,8.95
2023-04-07T08:04:12.488Z,8.95
2023-04-07T08:06:39.037Z,9.04
2023-04-07T08:09:06.223Z,9.05
2023-04-07T08:11:32.714Z,9.08
2023-04-07T08:13:59.136Z,9.02
2023-04-07T08:16:26.915Z,9.10
2023-04-07T08:18:53.523Z,9.17
2023-04-07T08:21:20.987Z,9.26
2023-04-07T08:23:47.908Z,9.25
2023-04-07T08:26:14.747Z,9.22
2023-04-07T08:28:41.182Z,9.23
2023-04-07T08:31:07.925Z,9.22
2023-04-07T08:33:34.414Z,9.19
2023-04-07T08:36:01.170Z,9.26
2023-04-07T08:38:27.965Z,9.36
2023-04-07T08:41:02.929Z,9.45
2023-04-07T08:43:30.266Z,9.44
2023-04-07T08:45:57.897Z,9.48
2023-04-07T08:48:27.056Z,9.50
2023-04-07T08:50:54.635Z,9.49
2023-04-07T08:53:28.168Z,9.48
2023-04-07T08:55:56.317Z,9.45
2023-04-07T08:58:23.365Z,9.61
2023-04-07T09:00:50.867Z,9.69
2023-04-07T09:03:18.347Z,9.62
2023-04-07T09:05:46.392Z,9.73
2023-04-07T09:08:12.973Z,9.81
2023-04-07T09:10:41.602Z,9.82
2023-04-07T09:13:08.087Z,9.71
2023-04-07T09:15:36.243Z,9.66
2023-04-07T09:18:04.684Z,9.67
2023-04-07T09:20:59.968Z,9.79
2023-04-07T09:23:31.752Z,9.80
2023-04-07T09:26:22.953Z,9.88
2023-04-07T09:28:53.441Z,9.84
2023-04-07T09:31:21.389Z,9.78
2023-04-07T09:33:49.812Z,9.71
2023-04-07T09:36:16.538Z,9.74
2023-04-07T09:38:44.736Z,9.74
2023-04-07T09:41:13.645Z,9.76
2023-04-07T09:43:44.641Z,9.72
2023-04-07T09:46:17.132Z,9.68
2023-04-07T09:48:45.952Z,9.72
2023-04-07T09:51:13.817Z,9.80
2023-04-07T09:53:51.408Z,9.74
2023-04-07T09:56:22.433Z,9.72
2023-04-07T09:58:53.298Z,9.72
2023-04-07T10:01:21.872Z,9.71
2023-04-07T10:03:50.932Z,9.74
2023-04-07T10:06:17.947Z,9.76
2023-04-07T10:08:44.463Z,9.72
2023-04-07T10:11:11.056Z,9.76
2023-04-07T10:13:40.675Z,9.72
2023-04-07T10:16:08.060Z,9.79
2023-04-07T10:18:36.163Z,9.85
2023-04-07T10:21:05.178Z,9.80
2023-04-07T10:23:46.169Z,9.78
2023-04-07T10:26:18.081Z,9.71
2023-04-07T10:28:48.775Z,9.60
2023-04-07T10:31:15.688Z,9.60
2023-04-07T10:33:48.716Z,9.63
2023-04-07T10:36:17.214Z,9.59
2023-04-07T10:39:09.101Z,9.60
2023-04-07T10:41:41.468Z,9.59
2023-04-07T10:44:10.022Z,9.61
2023-04-07T10:46:45.511Z,9.69
2023-04-07T10:49:13.374Z,9.73
2023-04-07T10:51:40.223Z,9.74
2023-04-07T10:54:23.478Z,9.74
2023-04-07T10:57:10.521Z,9.75
2023-04-07T10:59:41.691Z,9.73
2023-04-07T11:02:14.389Z,9.79
2023-04-07T11:04:43.465Z,9.81
2023-04-07T11:07:11.474Z,9.79
2023-04-07T11:09:38.210Z,9.77
2023-04-07T11:12:07.549Z,9.79
2023-04-07T11:14:37.312Z,9.75
2023-04-07T11:17:04.525Z,9.75
2023-04-07T11:19:32.451Z,9.67
2023-04-07T11:22:26.713Z,9.56
2023-04-07T11:24:56.979Z,9.55
2023-04-07T11:27:23.636Z,9.58
2023-04-07T11:29:50.396Z,9.61
2023-04-07T11:32:26.213Z,9.69
2023-04-07T11:34:52.857Z,9.73
2023-04-07T11:37:23.937Z,9.71
2023-04-07T11:39:54.598Z,9.68
2023-04-07T11:42:37.233Z,9.78
2023-04-07T11:45:05.906Z,9.81
2023-04-07T11:47:38.537Z,9.86
2023-04-07T11:50:05.686Z,9.90
2023-04-07T11:52:43.388Z,9.88
2023-04-07T11:55:24.384Z,9.89
2023-04-07T11:57:51.824Z,9.83
2023-04-07T12:00:20.343Z,9.80
2023-04-07T12:05:13.777Z,9.84
2023-04-07T12:07:41.981Z,9.80
2023-04-07T12:10:21.074Z,9.85
2023-04-07T12:12:48.090Z,9.83
2023-04-07T12:15:14.822Z,9.84
2023-04-07T12:17:47.359Z,9.93
2023-04-07T12:20:14.762Z,9.98
2023-04-07T12:22:41.630Z,10.04
2023-04-07T12:25:08.474Z,10.04
2023-04-07T12:27:42.801Z,10.08
2023-04-07T12:30:10.655Z,10.19
2023-04-07T12:32:37.832Z,10.26
2023-04-07T12:35:05.401Z,10.22
2023-04-07T12:37:32.870Z,10.17
2023-04-07T12:39:59.918Z,10.21
2023-04-07T12:42:27.149Z,10.21
2023-04-07T12:44:53.528Z,10.13
2023-04-07T12:47:20.113Z,10.09
2023-04-07T12:49:48.464Z,10.12
2023-04-07T12:52:16.151Z,10.15
2023-04-07T12:54:44.345Z,10.24
2023-04-07T12:57:11.468Z,10.21
2023-04-07T12:59:37.868Z,10.20
2023-04-07T13:02:04.555Z,10.25
2023-04-07T13:04:31.599Z,10.26
2023-04-07T13:06:58.292Z,10.31
2023-04-07T13:09:25.508Z,10.35
2023-04-07T13:11:51.954Z,10.31
2023-04-07T13:14:18.376Z,10.28
2023-04-07T13:16:45.008Z,10.27
2023-04-07T13:19:11.520Z,10.22
2023-04-07T13:24:07.442Z,10.28
2023-04-07T13:26:34.547Z,10.25
2023-04-07T13:29:01.236Z,10.15
2023-04-07T13:31:28.489Z,10.13
2023-04-07T13:33:54.937Z,10.15
2023-04-07T13:36:23.231Z,10.17
2023-04-07T13:38:49.991Z,10.15
2023-04-07T13:41:16.430Z,10.12
2023-04-07T13:43:42.890Z,10.06
2023-04-07T13:48:46.862Z,10.03
2023-04-07T13:51:13.353Z,10.02
2023-04-07T13:53:39.796Z,10.02
2023-04-07T13:56:08.719Z,10.04
2023-04-07T13:58:35.734Z,10.04
2023-04-07T14:01:03.248Z,10.05
2023-04-07T14:03:30.291Z,10.04
2023-04-07T14:06:00.995Z,10.07
2023-04-07T14:08:28.000Z,10.16
2023-04-07T14:10:54.463Z,10.24
2023-04-07T14:13:20.975Z,10.28
2023-04-07T14:15:48.648Z,10.30
2023-04-07T14:18:15.521Z,10.36
2023-04-07T14:20:42.019Z,10.40
2023-04-07T14:23:08.532Z,10.34
2023-04-07T14:25:35.010Z,10.22
2023-04-07T14:28:01.478Z,10.20
2023-04-07T14:30:27.913Z,10.27
2023-04-07T14:32:54.378Z,10.34
2023-04-07T14:35:21.896Z,10.36
2023-04-07T14:37:48.346Z,10.39
2023-04-07T14:40:14.789Z,10.40
2023-04-07T14:42:41.606Z,10.45
2023-04-07T14:45:08.949Z,10.44
2023-04-07T14:47:35.461Z,10.42
2023-04-07T14:50:01.905Z,10.38
2023-04-07T14:52:28.309Z,10.30
2023-04-07T14:54:55.046Z,10.17
2023-04-07T14:57:22.376Z,10.12
2023-04-07T14:59:48.862Z,10.13
2023-04-07T15:02:15.476Z,10.12
2023-04-07T15:04:42.414Z,10.10
2023-04-07T15:07:09.086Z,10.06
2023-04-07T15:09:35.643Z,10.03
2023-04-07T15:12:02.196Z,9.97
2023-04-07T15:14:28.683Z,9.96
2023-04-07T15:16:55.054Z,9.92
2023-04-07T15:19:21.519Z,9.95
2023-04-07T15:21:48.068Z,9.92
2023-04-07T15:24:16.303Z,9.91
2023-04-07T15:26:43.126Z,9.89
2023-04-07T15:29:09.545Z,9.87
2023-04-07T15:31:36.313Z,9.79
2023-04-07T15:34:02.759Z,9.71
2023-04-07T15:36:29.225Z,9.70
2023-04-07T15:38:55.713Z,9.68
2023-04-07T15:41:23.289Z,9.67
2023-04-07T15:43:50.416Z,9.61
2023-04-07T15:46:17.232Z,9.62
2023-04-07T15:48:43.692Z,9.64
2023-04-07T15:51:10.266Z,9.66
2023-04-07T15:53:36.768Z,9.66
2023-04-07T15:56:03.400Z,9.67
2023-04-07T15:58:31.337Z,9.73
2023-04-07T16:00:58.396Z,9.69
2023-04-07T16:03:25.003Z,9.65
2023-04-07T16:05:51.960Z,9.65
2023-04-07T16:08:18.424Z,9.60
2023-04-07T16:10:44.993Z,9.60
2023-04-07T16:13:11.572Z,9.58
2023-04-07T16:15:40.608Z,9.55
2023-04-07T16:18:12.345Z,9.50
2023-04-07T16:20:39.071Z,9.43
2023-04-07T16:23:05.603Z,9.35
2023-04-07T16:25:32.120Z,9.38
2023-04-07T16:27:58.575Z,9.37
2023-04-07T16:30:25.453Z,9.32
2023-04-07T16:32:52.316Z,9.34
2023-04-07T16:35:18.962Z,9.36
2023-04-07T16:37:49.718Z,9.39
2023-04-07T16:40:16.238Z,9.45
2023-04-07T16:42:42.717Z,9.45
2023-04-07T16:45:09.628Z,9.43
2023-04-07T16:47:37.887Z,9.45
2023-04-07T16:50:05.254Z,9.39
2023-04-07T16:52:32.274Z,9.36
2023-04-07T16:55:00.444Z,9.34
2023-04-07T16:57:27.044Z,9.34
2023-04-07T16:59:53.513Z,9.31
2023-04-07T17:02:20.382Z,9.34
2023-04-07T17:04:47.018Z,9.34
2023-04-07T17:07:13.797Z,9.31
2023-04-07T17:09:40.412Z,9.33
2023-04-07T17:12:07.069Z,9.33
2023-04-07T17:14:33.861Z,9.33
2023-04-07T17:17:00.829Z,9.33
2023-04-07T17:19:27.299Z,9.31
2023-04-07T17:21:55.017Z,9.22
2023-04-07T17:24:21.517Z,9.25
2023-04-07T17:26:47.979Z,9.26
2023-04-07T17:29:15.911Z,9.24
2023-04-07T17:31:42.644Z,9.26
2023-04-07T17:34:10.016Z,9.25
2023-04-07T17:36:37.524Z,9.23
2023-04-07T17:39:04.852Z,9.21
2023-04-07T17:41:34.664Z,9.16
2023-04-07T17:44:01.867Z,9.09
2023-04-07T17:46:28.640Z,9.12
2023-04-07T17:48:57.525Z,9.16
2023-04-07T17:51:25.141Z,9.16
2023-04-07T17:53:53.613Z,9.16
2023-04-07T17:56:20.888Z,9.14
2023-04-07T17:58:47.516Z,9.15
2023-04-07T18:01:14.500Z,9.16
2023-04-07T18:03:41.039Z,9.15
2023-04-07T18:06:08.463Z,9.14
2023-04-07T18:08:35.074Z,9.13
2023-04-07T18:11:01.641Z,9.13
2023-04-07T18:13:28.144Z,9.13
2023-04-07T18:15:54.584Z,9.13
2023-04-07T18:18:21.064Z,9.12
2023-04-07T18:20:47.406Z,9.12
2023-04-07T18:23:13.887Z,9.12
2023-04-07T18:25:41.049Z,9.15
2023-04-07T18:28:07.616Z,9.18
2023-04-07T18:30:34.097Z,9.19
2023-04-07T18:33:00.617Z,9.13
2023-04-07T18:35:27.115Z,9.12
2023-04-07T18:37:53.608Z,9.08
2023-04-07T18:40:20.423Z,9.10
2023-04-07T18:42:46.890Z,9.12
2023-04-07T18:45:13.435Z,9.12
2023-04-07T18:47:39.955Z,9.14
2023-04-07T18:50:07.058Z,9.07
2023-04-07T18:52:33.536Z,8.97
2023-04-07T18:55:00.070Z,8.93
2023-04-07T18:57:26.534Z,8.94
2023-04-07T18:59:53.020Z,8.94
2023-04-07T19:02:22.393Z,8.95
2023-04-07T19:04:49.338Z,8.99
2023-04-07T19:07:15.879Z,9.03
2023-04-07T19:09:42.538Z,9.00
2023-04-07T19:12:09.449Z,8.98
2023-04-07T19:14:35.866Z,8.98
2023-04-07T19:17:02.402Z,8.93
2023-04-07T19:19:28.952Z,8.88
2023-04-07T19:21:55.466Z,8.80
2023-04-07T19:24:21.952Z,8.78
2023-04-07T19:26:48.453Z,8.83
2023-04-07T19:29:15.200Z,8.84
2023-04-07T19:31:41.942Z,8.84
2023-04-07T19:34:08.464Z,8.86
2023-04-07T19:36:34.908Z,8.91
2023-04-07T19:39:01.623Z,8.95
2023-04-07T19:41:29.293Z,9.01
2023-04-07T19:43:55.771Z,9.03
2023-04-07T19:46:22.263Z,9.06
2023-04-07T19:48:48.672Z,9.10
2023-04-07T19:51:15.388Z,9.12
2023-04-07T19:53:42.069Z,9.08
2023-04-07T19:56:08.550Z,9.08
2023-04-07T19:58:35.195Z,9.10
2023-04-07T20:01:04.322Z,9.13
2023-04-07T20:03:31.456Z,9.13
2023-04-07T20:05:58.267Z,9.14
2023-04-07T20:08:24.655Z,9.14
2023-04-07T20:10:52.528Z,9.13
2023-04-07T20:13:20.246Z,9.14
2023-04-07T20:15:49.002Z,9.12
2023-04-07T20:18:18.370Z,9.11
2023-04-07T20:20:46.076Z,9.10
2023-04-07T20:23:13.547Z,9.06
2023-04-07T20:25:42.748Z,9.07
2023-04-07T20:28:09.197Z,9.09
2023-04-07T20:30:36.021Z,9.11
2023-04-07T20:33:02.481Z,9.12
2023-04-07T20:35:28.979Z,9.12
2023-04-07T20:37:55.443Z,9.11
2023-04-07T20:40:21.888Z,9.12
2023-04-07T20:42:48.346Z,9.12
2023-04-07T20:45:14.710Z,9.12
2023-04-07T20:47:41.562Z,9.14
2023-04-07T20:50:08.532Z,9.17
2023-04-07T20:52:39.439Z,9.20
2023-04-07T20:55:07.307Z,9.21
2023-04-07T20:57:33.699Z,9.23
2023-04-07T21:00:00.455Z,9.24
2023-04-07T21:02:27.007Z,9.27
2023-04-07T21:04:53.525Z,9.30
2023-04-07T21:07:20.105Z,9.32
2023-04-07T21:09:46.494Z,9.31
2023-04-07T21:12:14.083Z,9.30
2023-04-07T21:14:40.801Z,9.32
2023-04-07T21:17:07.280Z,9.36
2023-04-07T21:19:33.724Z,9.37
2023-04-07T21:22:03.810Z,9.39
2023-04-07T21:24:31.948Z,9.36
2023-04-07T21:26:58.514Z,9.36
2023-04-07T21:29:29.711Z,9.39
2023-04-07T21:31:56.171Z,9.40
2023-04-07T21:34:22.588Z,9.41
2023-04-07T21:36:49.018Z,9.39
2023-04-07T21:39:15.462Z,9.37
2023-04-07T21:41:42.200Z,9.35
2023-04-07T21:44:10.607Z,9.35
2023-04-07T21:46:41.041Z,9.36
2023-04-07T21:49:07.879Z,9.33
2023-04-07T21:51:34.365Z,9.30
2023-04-07T21:54:01.285Z,9.28
2023-04-07T21:56:28.956Z,9.26
2023-04-07T21:58:55.660Z,9.25
2023-04-07T22:01:22.189Z,9.20
2023-04-07T22:03:49.022Z,9.21
2023-04-07T22:06:15.692Z,9.14
2023-04-07T22:08:48.906Z,9.08
2023-04-07T22:11:24.911Z,9.06
2023-04-07T22:13:51.396Z,9.01
2023-04-07T22:16:17.954Z,9.00
2023-04-07T22:18:44.475Z,8.97
2023-04-07T22:21:11.037Z,8.99
2023-04-07T22:23:37.388Z,8.96
2023-04-07T22:26:03.878Z,8.92
2023-04-07T22:28:30.288Z,8.92
2023-04-07T22:30:58.080Z,8.94
2023-04-07T22:33:24.484Z,8.94
2023-04-07T22:35:51.192Z,8.92
2023-04-07T22:38:17.839Z,8.88
2023-04-07T22:40:45.256Z,8.92
2023-04-07T22:43:11.703Z,8.95
2023-04-07T22:45:38.096Z,8.93
2023-04-07T22:48:04.623Z,8.91
2023-04-07T22:50:30.999Z,8.93
2023-04-07T22:52:57.441Z,8.90
2023-04-07T22:55:23.883Z,8.87
2023-04-07T22:57:50.466Z,8.85
2023-04-07T23:00:16.997Z,8.86
2023-04-07T23:02:43.667Z,8.87
2023-04-07T23:05:10.583Z,8.83
2023-04-07T23:07:37.801Z,8.81
2023-04-07T23:10:04.650Z,8.76
2023-04-07T23:12:31.158Z,8.70
2023-04-07T23:14:57.601Z,8.68
2023-04-07T23:17:24.101Z,8.69
2023-04-07T23:19:50.593Z,8.69
2023-04-07T23:22:17.013Z,8.69
2023-04-07T23:24:43.454Z,8.67
2023-04-07T23:27:10.189Z,8.66
2023-04-07T23:29:36.747Z,8.63
2023-04-07T23:32:03.273Z,8.57
2023-04-07T23:34:29.714Z,8.54
2023-04-07T23:36:56.187Z,8.48
2023-04-07T23:39:22.638Z,8.42
2023-04-07T23:41:49.163Z,8.40
2023-04-07T23:44:15.623Z,8.35
2023-04-07T23:46:42.107Z,8.29
2023-04-07T23:49:08.603Z,8.25
2023-04-07T23:51:35.649Z,8.21
2023-04-07T23:54:02.251Z,8.23
2023-04-07T23:56:28.991Z,8.18
2023-04-07T23:58:55.886Z,8.13
